sensor_id;sensor_type;location;lat;lon;timestamp;temperature;humidity
7163;DHT22;3623;47.098;15.446;2023-05-19T00:01:27;10.30;99.90
7163;DHT22;3623;47.098;15.446;2023-05-19T00:03:57;10.30;99.90
7163;DHT22;3623;47.098;15.446;2023-05-19T00:06:28;10.30;99.90
7163;DHT22;3623;47.098;15.446;2023-05-19T00:08:57;10.30;99.90
7163;DHT22;3623;47.098;15.446;2023-05-19T00:11:27;10.30;99.90
7163;DHT22;3623;47.098;15.446;2023-05-19T00:13:56;10.30;99.90
7163;DHT22;3623;47.098;15.446;2023-05-19T00:16:25;10.30;99.90
7163;DHT22;3623;47.098;15.446;2023-05-19T00:18:52;10.30;99.90
7163;DHT22;3623;47.098;15.446;2023-05-19T00:21:21;10.20;99.90
7163;DHT22;3623;47.098;15.446;2023-05-19T00:23:48;10.30;99.90
7163;DHT22;3623;47.098;15.446;2023-05-19T00:26:16;10.30;99.90
7163;DHT22;3623;47.098;15.446;2023-05-19T00:28:44;10.30;99.90
7163;DHT22;3623;47.098;15.446;2023-05-19T00:31:11;10.30;99.90
7163;DHT22;3623;47.098;15.446;2023-05-19T00:33:39;10.20;99.90
7163;DHT22;3623;47.098;15.446;2023-05-19T00:36:06;10.20;99.90
7163;DHT22;3623;47.098;15.446;2023-05-19T00:38:35;10.10;99.90
7163;DHT22;3623;47.098;15.446;2023-05-19T00:41:04;10.10;99.90
7163;DHT22;3623;47.098;15.446;2023-05-19T00:43:32;10.10;99.90
7163;DHT22;3623;47.098;15.446;2023-05-19T00:46:01;10.10;99.90
7163;DHT22;3623;47.098;15.446;2023-05-19T00:48:28;10.00;99.90
7163;DHT22;3623;47.098;15.446;2023-05-19T00:50:56;10.00;99.90
7163;DHT22;3623;47.098;15.446;2023-05-19T00:53:29;10.00;99.90
7163;DHT22;3623;47.098;15.446;2023-05-19T00:55:57;10.00;99.90
7163;DHT22;3623;47.098;15.446;2023-05-19T00:58:26;10.00;99.90
7163;DHT22;3623;47.098;15.446;2023-05-19T01:00:54;10.00;99.90
7163;DHT22;3623;47.098;15.446;2023-05-19T01:03:29;10.00;99.90
7163;DHT22;3623;47.098;15.446;2023-05-19T01:05:59;10.00;99.90
7163;DHT22;3623;47.098;15.446;2023-05-19T01:08:30;10.10;99.90
7163;DHT22;3623;47.098;15.446;2023-05-19T01:10:58;10.10;99.90
7163;DHT22;3623;47.098;15.446;2023-05-19T01:13:25;10.10;99.90
7163;DHT22;3623;47.098;15.446;2023-05-19T01:16:00;10.00;99.90
7163;DHT22;3623;47.098;15.446;2023-05-19T01:18:40;10.00;99.90
7163;DHT22;3623;47.098;15.446;2023-05-19T01:21:35;10.00;99.90
7163;DHT22;3623;47.098;15.446;2023-05-19T01:24:21;10.00;99.90
7163;DHT22;3623;47.098;15.446;2023-05-19T01:27:08;10.10;99.90
7163;DHT22;3623;47.098;15.446;2023-05-19T01:29:41;10.20;99.90
7163;DHT22;3623;47.098;15.446;2023-05-19T01:32:13;10.10;99.90
7163;DHT22;3623;47.098;15.446;2023-05-19T01:34:45;10.10;99.90
7163;DHT22;3623;47.098;15.446;2023-05-19T01:37:15;10.10;99.90
7163;DHT22;3623;47.098;15.446;2023-05-19T01:39:44;10.10;99.90
7163;DHT22;3623;47.098;15.446;2023-05-19T01:42:11;10.10;99.90
7163;DHT22;3623;47.098;15.446;2023-05-19T01:44:40;10.10;99.90
7163;DHT22;3623;47.098;15.446;2023-05-19T01:47:08;10.10;99.90
7163;DHT22;3623;47.098;15.446;2023-05-19T01:49:37;10.10;99.90
7163;DHT22;3623;47.098;15.446;2023-05-19T01:52:06;10.10;99.90
7163;DHT22;3623;47.098;15.446;2023-05-19T01:54:36;10.00;99.90
7163;DHT22;3623;47.098;15.446;2023-05-19T01:57:09;10.10;99.90
7163;DHT22;3623;47.098;15.446;2023-05-19T01:59:49;10.10;99.90
7163;DHT22;3623;47.098;15.446;2023-05-19T02:02:25;10.10;99.90
7163;DHT22;3623;47.098;15.446;2023-05-19T02:05:00;10.00;99.90
7163;DHT22;3623;47.098;15.446;2023-05-19T02:07:36;10.00;99.90
7163;DHT22;3623;47.098;15.446;2023-05-19T02:10:06;10.00;99.90
7163;DHT22;3623;47.098;15.446;2023-05-19T02:12:37;10.00;99.90
7163;DHT22;3623;47.098;15.446;2023-05-19T02:15:08;9.90;99.90
7163;DHT22;3623;47.098;15.446;2023-05-19T02:17:39;10.00;99.90
7163;DHT22;3623;47.098;15.446;2023-05-19T02:20:09;9.90;99.90
7163;DHT22;3623;47.098;15.446;2023-05-19T02:22:38;9.90;99.90
7163;DHT22;3623;47.098;15.446;2023-05-19T02:25:06;10.20;99.90
7163;DHT22;3623;47.098;15.446;2023-05-19T02:27:33;9.90;99.90
7163;DHT22;3623;47.098;15.446;2023-05-19T02:30:03;9.90;99.90
7163;DHT22;3623;47.098;15.446;2023-05-19T02:32:33;9.80;99.90
7163;DHT22;3623;47.098;15.446;2023-05-19T02:35:01;9.90;99.90
7163;DHT22;3623;47.098;15.446;2023-05-19T02:37:30;9.90;99.90
7163;DHT22;3623;47.098;15.446;2023-05-19T02:39:57;10.10;99.90
7163;DHT22;3623;47.098;15.446;2023-05-19T02:42:24;9.90;99.90
7163;DHT22;3623;47.098;15.446;2023-05-19T02:44:53;10.10;99.90
7163;DHT22;3623;47.098;15.446;2023-05-19T02:47:20;9.80;99.90
7163;DHT22;3623;47.098;15.446;2023-05-19T02:49:50;10.00;99.90
7163;DHT22;3623;47.098;15.446;2023-05-19T02:52:17;9.80;99.90
7163;DHT22;3623;47.098;15.446;2023-05-19T02:54:46;9.80;99.90
7163;DHT22;3623;47.098;15.446;2023-05-19T02:57:13;9.70;99.90
7163;DHT22;3623;47.098;15.446;2023-05-19T02:59:40;9.70;99.90
7163;DHT22;3623;47.098;15.446;2023-05-19T03:02:08;9.70;99.90
7163;DHT22;3623;47.098;15.446;2023-05-19T03:04:38;9.70;99.90
7163;DHT22;3623;47.098;15.446;2023-05-19T03:07:06;9.80;99.90
7163;DHT22;3623;47.098;15.446;2023-05-19T03:09:40;9.80;99.90
7163;DHT22;3623;47.098;15.446;2023-05-19T03:12:10;10.00;99.90
7163;DHT22;3623;47.098;15.446;2023-05-19T03:14:37;9.70;99.90
7163;DHT22;3623;47.098;15.446;2023-05-19T03:17:04;9.90;99.90
7163;DHT22;3623;47.098;15.446;2023-05-19T03:19:32;9.80;99.90
7163;DHT22;3623;47.098;15.446;2023-05-19T03:22:00;9.80;99.90
7163;DHT22;3623;47.098;15.446;2023-05-19T03:24:27;9.70;99.90
7163;DHT22;3623;47.098;15.446;2023-05-19T03:26:57;9.80;99.90
7163;DHT22;3623;47.098;15.446;2023-05-19T03:29:25;9.80;99.90
7163;DHT22;3623;47.098;15.446;2023-05-19T03:31:52;9.90;99.90
7163;DHT22;3623;47.098;15.446;2023-05-19T03:34:20;10.10;99.90
7163;DHT22;3623;47.098;15.446;2023-05-19T03:36:47;9.80;99.90
7163;DHT22;3623;47.098;15.446;2023-05-19T03:39:15;9.90;99.90
7163;DHT22;3623;47.098;15.446;2023-05-19T03:41:42;9.90;99.90
7163;DHT22;3623;47.098;15.446;2023-05-19T03:44:11;9.90;99.90
7163;DHT22;3623;47.098;15.446;2023-05-19T03:46:40;9.90;99.90
7163;DHT22;3623;47.098;15.446;2023-05-19T03:49:07;9.90;99.90
7163;DHT22;3623;47.098;15.446;2023-05-19T03:51:34;9.90;99.90
7163;DHT22;3623;47.098;15.446;2023-05-19T03:54:01;9.80;99.90
7163;DHT22;3623;47.098;15.446;2023-05-19T03:56:29;9.80;99.90
7163;DHT22;3623;47.098;15.446;2023-05-19T03:58:57;9.80;99.90
7163;DHT22;3623;47.098;15.446;2023-05-19T04:01:24;9.80;99.90
7163;DHT22;3623;47.098;15.446;2023-05-19T04:03:53;9.90;99.90
7163;DHT22;3623;47.098;15.446;2023-05-19T04:06:20;9.90;99.90
7163;DHT22;3623;47.098;15.446;2023-05-19T04:08:48;9.90;99.90
7163;DHT22;3623;47.098;15.446;2023-05-19T04:11:15;9.90;99.90
7163;DHT22;3623;47.098;15.446;2023-05-19T04:13:44;9.90;99.90
7163;DHT22;3623;47.098;15.446;2023-05-19T04:16:11;9.90;99.90
7163;DHT22;3623;47.098;15.446;2023-05-19T04:18:39;9.90;99.90
7163;DHT22;3623;47.098;15.446;2023-05-19T04:21:08;9.90;99.90
7163;DHT22;3623;47.098;15.446;2023-05-19T04:23:35;10.00;99.90
7163;DHT22;3623;47.098;15.446;2023-05-19T04:26:03;9.90;99.90
7163;DHT22;3623;47.098;15.446;2023-05-19T04:28:34;9.90;99.90
7163;DHT22;3623;47.098;15.446;2023-05-19T04:31:04;9.90;99.90
7163;DHT22;3623;47.098;15.446;2023-05-19T04:33:35;9.90;99.90
7163;DHT22;3623;47.098;15.446;2023-05-19T04:36:03;9.90;99.90
7163;DHT22;3623;47.098;15.446;2023-05-19T04:38:35;9.90;99.90
7163;DHT22;3623;47.098;15.446;2023-05-19T04:41:04;10.00;99.90
7163;DHT22;3623;47.098;15.446;2023-05-19T04:43:35;10.00;99.90
7163;DHT22;3623;47.098;15.446;2023-05-19T04:46:06;10.10;99.90
7163;DHT22;3623;47.098;15.446;2023-05-19T04:48:36;10.10;99.90
7163;DHT22;3623;47.098;15.446;2023-05-19T04:51:07;10.20;99.90
7163;DHT22;3623;47.098;15.446;2023-05-19T04:53:35;10.20;99.90
7163;DHT22;3623;47.098;15.446;2023-05-19T04:56:05;10.10;99.90
7163;DHT22;3623;47.098;15.446;2023-05-19T04:58:32;10.20;99.90
7163;DHT22;3623;47.098;15.446;2023-05-19T05:01:03;10.30;99.90
7163;DHT22;3623;47.098;15.446;2023-05-19T05:03:30;10.30;99.90
7163;DHT22;3623;47.098;15.446;2023-05-19T05:05:59;10.30;99.90
7163;DHT22;3623;47.098;15.446;2023-05-19T05:08:28;10.40;99.90
7163;DHT22;3623;47.098;15.446;2023-05-19T05:10:57;10.30;99.90
7163;DHT22;3623;47.098;15.446;2023-05-19T05:13:25;10.40;99.90
7163;DHT22;3623;47.098;15.446;2023-05-19T05:15:53;10.30;99.90
7163;DHT22;3623;47.098;15.446;2023-05-19T05:18:21;10.40;99.90
7163;DHT22;3623;47.098;15.446;2023-05-19T05:20:53;10.50;99.90
7163;DHT22;3623;47.098;15.446;2023-05-19T05:23:21;10.50;99.90
7163;DHT22;3623;47.098;15.446;2023-05-19T05:25:49;10.60;99.90
7163;DHT22;3623;47.098;15.446;2023-05-19T05:28:18;10.60;99.90
7163;DHT22;3623;47.098;15.446;2023-05-19T05:30:45;10.60;99.90
7163;DHT22;3623;47.098;15.446;2023-05-19T05:33:13;10.70;99.90
7163;DHT22;3623;47.098;15.446;2023-05-19T05:35:41;10.70;99.90
7163;DHT22;3623;47.098;15.446;2023-05-19T05:38:08;10.70;99.90
7163;DHT22;3623;47.098;15.446;2023-05-19T05:40:36;10.70;99.90
7163;DHT22;3623;47.098;15.446;2023-05-19T05:43:04;10.70;99.90
7163;DHT22;3623;47.098;15.446;2023-05-19T05:45:32;10.70;99.90
7163;DHT22;3623;47.098;15.446;2023-05-19T05:48:03;10.70;99.90
7163;DHT22;3623;47.098;15.446;2023-05-19T05:50:32;10.60;99.90
7163;DHT22;3623;47.098;15.446;2023-05-19T05:53:00;10.60;99.90
7163;DHT22;3623;47.098;15.446;2023-05-19T05:55:28;10.60;99.90
7163;DHT22;3623;47.098;15.446;2023-05-19T05:57:55;10.60;99.90
7163;DHT22;3623;47.098;15.446;2023-05-19T06:00:23;10.70;99.90
7163;DHT22;3623;47.098;15.446;2023-05-19T06:02:54;10.60;99.90
7163;DHT22;3623;47.098;15.446;2023-05-19T06:05:21;10.70;99.90
7163;DHT22;3623;47.098;15.446;2023-05-19T06:07:49;10.80;99.90
7163;DHT22;3623;47.098;15.446;2023-05-19T06:10:16;10.80;99.90
7163;DHT22;3623;47.098;15.446;2023-05-19T06:12:44;10.90;99.90
7163;DHT22;3623;47.098;15.446;2023-05-19T06:15:11;10.90;99.90
7163;DHT22;3623;47.098;15.446;2023-05-19T06:17:38;11.00;99.90
7163;DHT22;3623;47.098;15.446;2023-05-19T06:20:07;11.00;99.90
7163;DHT22;3623;47.098;15.446;2023-05-19T06:22:35;10.90;99.90
7163;DHT22;3623;47.098;15.446;2023-05-19T06:25:03;11.20;99.90
7163;DHT22;3623;47.098;15.446;2023-05-19T06:27:30;11.30;99.90
7163;DHT22;3623;47.098;15.446;2023-05-19T06:29:57;11.30;99.90
7163;DHT22;3623;47.098;15.446;2023-05-19T06:32:25;11.20;99.90
7163;DHT22;3623;47.098;15.446;2023-05-19T06:34:52;11.20;99.90
7163;DHT22;3623;47.098;15.446;2023-05-19T06:37:21;11.30;99.90
7163;DHT22;3623;47.098;15.446;2023-05-19T06:39:49;11.40;99.90
7163;DHT22;3623;47.098;15.446;2023-05-19T06:42:18;11.60;99.90
7163;DHT22;3623;47.098;15.446;2023-05-19T06:44:49;11.80;99.90
7163;DHT22;3623;47.098;15.446;2023-05-19T06:47:17;11.80;99.90
7163;DHT22;3623;47.098;15.446;2023-05-19T06:49:44;11.80;99.90
7163;DHT22;3623;47.098;15.446;2023-05-19T06:52:15;11.80;99.90
7163;DHT22;3623;47.098;15.446;2023-05-19T06:54:44;11.70;99.90
7163;DHT22;3623;47.098;15.446;2023-05-19T06:57:11;11.90;99.90
7163;DHT22;3623;47.098;15.446;2023-05-19T06:59:38;12.00;99.90
7163;DHT22;3623;47.098;15.446;2023-05-19T07:02:06;12.10;99.90
7163;DHT22;3623;47.098;15.446;2023-05-19T07:04:33;12.10;99.90
7163;DHT22;3623;47.098;15.446;2023-05-19T07:07:01;12.20;99.90
7163;DHT22;3623;47.098;15.446;2023-05-19T07:09:28;12.40;99.90
7163;DHT22;3623;47.098;15.446;2023-05-19T07:11:56;12.50;99.90
7163;DHT22;3623;47.098;15.446;2023-05-19T07:14:23;12.50;99.90
7163;DHT22;3623;47.098;15.446;2023-05-19T07:16:50;12.60;99.90
7163;DHT22;3623;47.098;15.446;2023-05-19T07:19:17;12.60;99.90
7163;DHT22;3623;47.098;15.446;2023-05-19T07:21:46;12.50;99.90
7163;DHT22;3623;47.098;15.446;2023-05-19T07:24:13;12.50;99.90
7163;DHT22;3623;47.098;15.446;2023-05-19T07:26:42;12.70;99.90
7163;DHT22;3623;47.098;15.446;2023-05-19T07:29:11;12.50;99.90
7163;DHT22;3623;47.098;15.446;2023-05-19T07:31:38;13.30;99.90
7163;DHT22;3623;47.098;15.446;2023-05-19T07:34:05;13.00;99.90
7163;DHT22;3623;47.098;15.446;2023-05-19T07:36:33;12.90;99.90
7163;DHT22;3623;47.098;15.446;2023-05-19T07:39:03;13.10;99.90
7163;DHT22;3623;47.098;15.446;2023-05-19T07:41:30;13.20;99.90
7163;DHT22;3623;47.098;15.446;2023-05-19T07:43:57;13.50;99.90
7163;DHT22;3623;47.098;15.446;2023-05-19T07:46:26;13.20;99.90
7163;DHT22;3623;47.098;15.446;2023-05-19T07:48:55;13.40;99.90
7163;DHT22;3623;47.098;15.446;2023-05-19T07:51:24;13.50;99.90
7163;DHT22;3623;47.098;15.446;2023-05-19T07:53:51;13.30;99.90
7163;DHT22;3623;47.098;15.446;2023-05-19T07:56:18;13.50;99.90
7163;DHT22;3623;47.098;15.446;2023-05-19T07:58:46;13.80;99.90
7163;DHT22;3623;47.098;15.446;2023-05-19T08:01:13;14.00;99.90
7163;DHT22;3623;47.098;15.446;2023-05-19T08:03:41;13.60;99.90
7163;DHT22;3623;47.098;15.446;2023-05-19T08:06:08;14.10;99.90
7163;DHT22;3623;47.098;15.446;2023-05-19T08:08:35;13.80;99.90
7163;DHT22;3623;47.098;15.446;2023-05-19T08:11:02;14.20;99.90
7163;DHT22;3623;47.098;15.446;2023-05-19T08:13:31;13.80;99.90
7163;DHT22;3623;47.098;15.446;2023-05-19T08:15:59;13.90;99.90
7163;DHT22;3623;47.098;15.446;2023-05-19T08:18:26;14.00;99.90
7163;DHT22;3623;47.098;15.446;2023-05-19T08:20:56;14.20;99.90
7163;DHT22;3623;47.098;15.446;2023-05-19T08:23:23;14.00;99.90
7163;DHT22;3623;47.098;15.446;2023-05-19T08:25:50;14.20;99.90
7163;DHT22;3623;47.098;15.446;2023-05-19T08:28:20;14.60;99.90
7163;DHT22;3623;47.098;15.446;2023-05-19T08:30:48;15.00;99.90
7163;DHT22;3623;47.098;15.446;2023-05-19T08:33:16;15.00;99.90
7163;DHT22;3623;47.098;15.446;2023-05-19T08:35:45;15.10;99.90
7163;DHT22;3623;47.098;15.446;2023-05-19T08:38:14;14.90;99.90
7163;DHT22;3623;47.098;15.446;2023-05-19T08:40:41;15.00;99.90
7163;DHT22;3623;47.098;15.446;2023-05-19T08:43:08;15.40;99.90
7163;DHT22;3623;47.098;15.446;2023-05-19T08:45:36;15.30;99.90
7163;DHT22;3623;47.098;15.446;2023-05-19T08:48:05;15.40;99.90
7163;DHT22;3623;47.098;15.446;2023-05-19T08:50:38;15.20;99.90
7163;DHT22;3623;47.098;15.446;2023-05-19T08:53:11;15.00;99.90
7163;DHT22;3623;47.098;15.446;2023-05-19T08:55:45;14.90;99.90
7163;DHT22;3623;47.098;15.446;2023-05-19T08:58:14;14.80;99.90
7163;DHT22;3623;47.098;15.446;2023-05-19T09:00:41;14.80;99.90
7163;DHT22;3623;47.098;15.446;2023-05-19T09:03:09;14.80;99.90
7163;DHT22;3623;47.098;15.446;2023-05-19T09:05:38;14.80;99.90
7163;DHT22;3623;47.098;15.446;2023-05-19T09:08:06;14.60;99.90
7163;DHT22;3623;47.098;15.446;2023-05-19T09:10:36;14.40;99.90
7163;DHT22;3623;47.098;15.446;2023-05-19T09:13:04;14.20;99.90
7163;DHT22;3623;47.098;15.446;2023-05-19T09:15:33;14.60;99.90
7163;DHT22;3623;47.098;15.446;2023-05-19T09:20:39;15.50;99.90
7163;DHT22;3623;47.098;15.446;2023-05-19T09:23:07;15.80;99.90
7163;DHT22;3623;47.098;15.446;2023-05-19T09:28:21;16.30;99.90
7163;DHT22;3623;47.098;15.446;2023-05-19T09:30:50;16.40;99.90
7163;DHT22;3623;47.098;15.446;2023-05-19T09:33:26;16.20;99.90
7163;DHT22;3623;47.098;15.446;2023-05-19T09:36:00;16.20;99.90
7163;DHT22;3623;47.098;15.446;2023-05-19T09:38:28;15.90;99.90
7163;DHT22;3623;47.098;15.446;2023-05-19T09:40:56;15.70;99.90
7163;DHT22;3623;47.098;15.446;2023-05-19T09:43:26;15.80;99.90
7163;DHT22;3623;47.098;15.446;2023-05-19T09:45:57;15.80;99.90
7163;DHT22;3623;47.098;15.446;2023-05-19T09:48:25;15.80;99.90
7163;DHT22;3623;47.098;15.446;2023-05-19T09:50:53;16.20;99.90
7163;DHT22;3623;47.098;15.446;2023-05-19T09:53:24;15.90;99.90
7163;DHT22;3623;47.098;15.446;2023-05-19T09:55:54;15.90;99.90
7163;DHT22;3623;47.098;15.446;2023-05-19T09:58:29;16.20;99.90
7163;DHT22;3623;47.098;15.446;2023-05-19T10:01:02;16.60;99.90
7163;DHT22;3623;47.098;15.446;2023-05-19T10:03:38;16.70;99.90
7163;DHT22;3623;47.098;15.446;2023-05-19T10:06:09;16.70;99.90
7163;DHT22;3623;47.098;15.446;2023-05-19T10:08:36;16.90;99.90
7163;DHT22;3623;47.098;15.446;2023-05-19T10:11:08;17.30;99.90
7163;DHT22;3623;47.098;15.446;2023-05-19T10:13:38;17.60;99.90
7163;DHT22;3623;47.098;15.446;2023-05-19T10:16:06;17.40;99.90
7163;DHT22;3623;47.098;15.446;2023-05-19T10:18:35;17.10;99.90
7163;DHT22;3623;47.098;15.446;2023-05-19T10:21:03;17.00;99.90
7163;DHT22;3623;47.098;15.446;2023-05-19T10:23:30;17.00;99.90
7163;DHT22;3623;47.098;15.446;2023-05-19T10:25:58;17.00;99.90
7163;DHT22;3623;47.098;15.446;2023-05-19T10:28:33;16.80;99.90
7163;DHT22;3623;47.098;15.446;2023-05-19T10:31:05;16.70;99.90
7163;DHT22;3623;47.098;15.446;2023-05-19T10:38:45;17.10;99.90
7163;DHT22;3623;47.098;15.446;2023-05-19T10:43:55;17.10;99.90
7163;DHT22;3623;47.098;15.446;2023-05-19T10:51:29;17.30;99.90
7163;DHT22;3623;47.098;15.446;2023-05-19T10:53:56;16.90;99.90
7163;DHT22;3623;47.098;15.446;2023-05-19T10:56:29;16.50;99.90
7163;DHT22;3623;47.098;15.446;2023-05-19T10:58:58;16.50;99.90
7163;DHT22;3623;47.098;15.446;2023-05-19T11:01:33;16.40;99.90
7163;DHT22;3623;47.098;15.446;2023-05-19T11:04:07;16.40;99.90
7163;DHT22;3623;47.098;15.446;2023-05-19T11:09:11;16.50;99.90
7163;DHT22;3623;47.098;15.446;2023-05-19T11:11:46;17.10;99.90
7163;DHT22;3623;47.098;15.446;2023-05-19T11:14:18;18.00;99.90
7163;DHT22;3623;47.098;15.446;2023-05-19T11:16:48;18.70;99.90
7163;DHT22;3623;47.098;15.446;2023-05-19T11:19:24;18.90;99.90
7163;DHT22;3623;47.098;15.446;2023-05-19T11:24:36;17.90;99.90
7163;DHT22;3623;47.098;15.446;2023-05-19T11:27:18;17.60;99.90
7163;DHT22;3623;47.098;15.446;2023-05-19T11:29:46;17.90;99.90
7163;DHT22;3623;47.098;15.446;2023-05-19T11:37:15;20.90;99.90
7163;DHT22;3623;47.098;15.446;2023-05-19T11:39:44;20.50;99.90
7163;DHT22;3623;47.098;15.446;2023-05-19T11:42:12;19.40;99.90
7163;DHT22;3623;47.098;15.446;2023-05-19T11:47:11;18.80;99.90
7163;DHT22;3623;47.098;15.446;2023-05-19T11:52:10;20.30;99.90
7163;DHT22;3623;47.098;15.446;2023-05-19T12:07:12;23.80;99.90
7163;DHT22;3623;47.098;15.446;2023-05-19T12:24:37;22.10;99.90
7163;DHT22;3623;47.098;15.446;2023-05-19T12:27:08;20.60;99.90
7163;DHT22;3623;47.098;15.446;2023-05-19T12:29:37;20.30;99.90
7163;DHT22;3623;47.098;15.446;2023-05-19T12:32:05;19.70;99.90
7163;DHT22;3623;47.098;15.446;2023-05-19T12:34:35;19.70;99.90
7163;DHT22;3623;47.098;15.446;2023-05-19T12:37:03;20.10;99.90
7163;DHT22;3623;47.098;15.446;2023-05-19T12:39:31;20.30;99.90
7163;DHT22;3623;47.098;15.446;2023-05-19T12:44:29;21.90;99.90
7163;DHT22;3623;47.098;15.446;2023-05-19T12:49:25;20.30;99.90
7163;DHT22;3623;47.098;15.446;2023-05-19T12:51:52;20.00;99.90
7163;DHT22;3623;47.098;15.446;2023-05-19T12:54:25;19.50;99.90
7163;DHT22;3623;47.098;15.446;2023-05-19T12:56:58;18.90;99.90
7163;DHT22;3623;47.098;15.446;2023-05-19T12:59:25;19.10;99.90
7163;DHT22;3623;47.098;15.446;2023-05-19T13:01:56;18.60;99.90
7163;DHT22;3623;47.098;15.446;2023-05-19T13:04:25;18.40;99.90
7163;DHT22;3623;47.098;15.446;2023-05-19T13:06:52;18.70;99.90
7163;DHT22;3623;47.098;15.446;2023-05-19T13:09:19;19.00;99.90
7163;DHT22;3623;47.098;15.446;2023-05-19T13:11:47;19.00;99.90
7163;DHT22;3623;47.098;15.446;2023-05-19T13:14:18;19.20;99.90
7163;DHT22;3623;47.098;15.446;2023-05-19T13:16:45;19.60;99.90
7163;DHT22;3623;47.098;15.446;2023-05-19T13:19:14;20.10;99.90
7163;DHT22;3623;47.098;15.446;2023-05-19T13:21:41;20.10;99.90
7163;DHT22;3623;47.098;15.446;2023-05-19T13:24:09;20.00;99.90
7163;DHT22;3623;47.098;15.446;2023-05-19T13:26:36;20.20;99.90
7163;DHT22;3623;47.098;15.446;2023-05-19T13:29:04;20.40;99.90
7163;DHT22;3623;47.098;15.446;2023-05-19T13:31:34;20.50;99.90
7163;DHT22;3623;47.098;15.446;2023-05-19T13:34:02;20.60;99.90
7163;DHT22;3623;47.098;15.446;2023-05-19T13:36:31;20.30;99.90
7163;DHT22;3623;47.098;15.446;2023-05-19T13:38:59;20.30;99.90
7163;DHT22;3623;47.098;15.446;2023-05-19T13:41:27;20.60;99.90
7163;DHT22;3623;47.098;15.446;2023-05-19T13:43:55;20.40;99.90
7163;DHT22;3623;47.098;15.446;2023-05-19T13:46:22;20.40;99.90
7163;DHT22;3623;47.098;15.446;2023-05-19T13:48:52;20.10;99.90
7163;DHT22;3623;47.098;15.446;2023-05-19T13:51:19;20.30;99.90
7163;DHT22;3623;47.098;15.446;2023-05-19T13:56:13;20.20;99.90
7163;DHT22;3623;47.098;15.446;2023-05-19T13:58:40;19.70;99.90
7163;DHT22;3623;47.098;15.446;2023-05-19T14:01:08;19.40;99.90
7163;DHT22;3623;47.098;15.446;2023-05-19T14:06:04;19.10;99.90
7163;DHT22;3623;47.098;15.446;2023-05-19T14:08:31;18.90;99.90
7163;DHT22;3623;47.098;15.446;2023-05-19T14:10:58;18.70;99.90
7163;DHT22;3623;47.098;15.446;2023-05-19T14:13:26;18.60;99.90
7163;DHT22;3623;47.098;15.446;2023-05-19T14:15:53;18.70;99.90
7163;DHT22;3623;47.098;15.446;2023-05-19T14:18:20;18.60;99.90
7163;DHT22;3623;47.098;15.446;2023-05-19T14:20:47;19.00;99.90
7163;DHT22;3623;47.098;15.446;2023-05-19T14:23:15;19.00;99.90
7163;DHT22;3623;47.098;15.446;2023-05-19T14:28:12;18.80;99.90
7163;DHT22;3623;47.098;15.446;2023-05-19T14:30:39;18.70;99.90
7163;DHT22;3623;47.098;15.446;2023-05-19T14:33:06;18.50;99.90
7163;DHT22;3623;47.098;15.446;2023-05-19T14:38:01;18.10;99.90
7163;DHT22;3623;47.098;15.446;2023-05-19T14:40:30;17.80;99.90
7163;DHT22;3623;47.098;15.446;2023-05-19T14:42:57;17.60;99.90
7163;DHT22;3623;47.098;15.446;2023-05-19T14:47:51;17.60;99.90
7163;DHT22;3623;47.098;15.446;2023-05-19T14:50:21;17.20;99.90
7163;DHT22;3623;47.098;15.446;2023-05-19T14:52:49;17.20;99.90
7163;DHT22;3623;47.098;15.446;2023-05-19T14:55:16;17.10;99.90
7163;DHT22;3623;47.098;15.446;2023-05-19T14:57:44;16.90;99.90
7163;DHT22;3623;47.098;15.446;2023-05-19T15:00:12;16.90;99.90
7163;DHT22;3623;47.098;15.446;2023-05-19T15:05:07;16.90;99.90
7163;DHT22;3623;47.098;15.446;2023-05-19T15:07:36;16.90;99.90
7163;DHT22;3623;47.098;15.446;2023-05-19T15:10:04;16.90;99.90
7163;DHT22;3623;47.098;15.446;2023-05-19T15:12:32;17.10;99.90
7163;DHT22;3623;47.098;15.446;2023-05-19T15:15:00;17.10;99.90
7163;DHT22;3623;47.098;15.446;2023-05-19T15:17:28;16.90;99.90
7163;DHT22;3623;47.098;15.446;2023-05-19T15:19:55;17.10;99.90
7163;DHT22;3623;47.098;15.446;2023-05-19T15:22:22;17.20;99.90
7163;DHT22;3623;47.098;15.446;2023-05-19T15:24:49;17.20;99.90
7163;DHT22;3623;47.098;15.446;2023-05-19T15:27:16;17.30;99.90
7163;DHT22;3623;47.098;15.446;2023-05-19T15:29:48;17.40;99.90
7163;DHT22;3623;47.098;15.446;2023-05-19T15:32:19;17.40;99.90
7163;DHT22;3623;47.098;15.446;2023-05-19T15:34:46;17.40;99.90
7163;DHT22;3623;47.098;15.446;2023-05-19T15:37:13;17.50;99.90
7163;DHT22;3623;47.098;15.446;2023-05-19T15:39:41;17.60;99.90
7163;DHT22;3623;47.098;15.446;2023-05-19T15:42:08;17.60;99.90
7163;DHT22;3623;47.098;15.446;2023-05-19T15:44:35;17.80;99.90
7163;DHT22;3623;47.098;15.446;2023-05-19T15:47:03;17.80;99.90
7163;DHT22;3623;47.098;15.446;2023-05-19T15:49:32;17.90;99.90
7163;DHT22;3623;47.098;15.446;2023-05-19T15:51:59;17.90;99.90
7163;DHT22;3623;47.098;15.446;2023-05-19T15:54:26;18.00;99.90
7163;DHT22;3623;47.098;15.446;2023-05-19T15:56:53;17.70;99.90
7163;DHT22;3623;47.098;15.446;2023-05-19T15:59:20;17.50;99.90
7163;DHT22;3623;47.098;15.446;2023-05-19T16:01:47;17.20;99.90
7163;DHT22;3623;47.098;15.446;2023-05-19T16:04:15;17.20;99.90
7163;DHT22;3623;47.098;15.446;2023-05-19T16:06:44;17.00;99.90
7163;DHT22;3623;47.098;15.446;2023-05-19T16:09:11;16.90;99.90
7163;DHT22;3623;47.098;15.446;2023-05-19T16:11:38;16.70;99.90
7163;DHT22;3623;47.098;15.446;2023-05-19T16:14:05;16.60;99.90
7163;DHT22;3623;47.098;15.446;2023-05-19T16:16:33;16.60;99.90
7163;DHT22;3623;47.098;15.446;2023-05-19T16:19:00;16.70;99.90
7163;DHT22;3623;47.098;15.446;2023-05-19T16:21:27;16.50;99.90
7163;DHT22;3623;47.098;15.446;2023-05-19T16:23:55;16.40;99.90
7163;DHT22;3623;47.098;15.446;2023-05-19T16:26:23;16.30;99.90
7163;DHT22;3623;47.098;15.446;2023-05-19T16:28:51;16.30;99.90
7163;DHT22;3623;47.098;15.446;2023-05-19T16:31:18;16.10;99.90
7163;DHT22;3623;47.098;15.446;2023-05-19T16:33:45;16.20;99.90
7163;DHT22;3623;47.098;15.446;2023-05-19T16:36:12;16.20;99.90
7163;DHT22;3623;47.098;15.446;2023-05-19T16:38:39;16.30;99.90
7163;DHT22;3623;47.098;15.446;2023-05-19T16:41:11;16.20;99.90
7163;DHT22;3623;47.098;15.446;2023-05-19T16:43:38;16.20;99.90
7163;DHT22;3623;47.098;15.446;2023-05-19T16:46:07;16.20;99.90
7163;DHT22;3623;47.098;15.446;2023-05-19T16:48:37;16.10;99.90
7163;DHT22;3623;47.098;15.446;2023-05-19T16:51:04;16.10;99.90
7163;DHT22;3623;47.098;15.446;2023-05-19T16:55:59;16.10;99.90
7163;DHT22;3623;47.098;15.446;2023-05-19T16:58:28;16.70;99.90
7163;DHT22;3623;47.098;15.446;2023-05-19T17:00:55;16.10;99.90
7163;DHT22;3623;47.098;15.446;2023-05-19T17:03:22;16.20;99.90
7163;DHT22;3623;47.098;15.446;2023-05-19T17:05:50;15.70;99.90
7163;DHT22;3623;47.098;15.446;2023-05-19T17:08:17;16.00;99.90
7163;DHT22;3623;47.098;15.446;2023-05-19T17:10:44;15.90;99.90
7163;DHT22;3623;47.098;15.446;2023-05-19T17:13:12;15.90;99.90
7163;DHT22;3623;47.098;15.446;2023-05-19T17:15:44;15.90;99.90
7163;DHT22;3623;47.098;15.446;2023-05-19T17:18:20;15.90;99.90
7163;DHT22;3623;47.098;15.446;2023-05-19T17:20:47;15.80;99.90